Time;durP1;ratioP1;P1;durP2;ratioP2;P2;SDS_P1;SDS_P2;PMS_P1;PMS_P2;Temp;Humidity;BMP_temperature;BMP_pressure;BME280_temperature;BME280_humidity;BME280_pressure;Samples;Min_cycle;Max_cycle;Signal;HPM_P1;HPM_P2
2021/01/09 00:00:59;;;;;;;7.80;7.00;;;6.80;67.40;;;;;;2105113;28;20038;-60
2021/01/09 00:02:00;;;;;;;8.07;7.28;;;6.80;67.40;;;;;;2103699;28;20085;-59
2021/01/09 00:03:00;;;;;;;8.43;7.00;;;6.80;67.40;;;;;;2104268;28;20032;-59
2021/01/09 00:04:04;;;;;;;7.60;6.78;;;6.80;67.40;;;;;;2103263;28;20032;-59
2021/01/09 00:05:07;;;;;;;7.85;7.05;;;6.80;67.40;;;;;;2106114;28;20024;-59
2021/01/09 00:06:08;;;;;;;8.63;6.93;;;6.80;67.40;;;;;;2104223;28;20028;-60
2021/01/09 00:07:09;;;;;;;8.07;7.13;;;6.80;67.40;;;;;;2101978;28;20037;-58
2021/01/09 00:08:10;;;;;;;7.72;6.90;;;6.80;67.40;;;;;;2103181;28;20035;-58
2021/01/09 00:09:11;;;;;;;8.00;6.90;;;6.80;67.40;;;;;;2104995;28;20056;-59
2021/01/09 00:10:11;;;;;;;8.80;7.53;;;6.80;67.50;;;;;;2102539;28;20039;-59
2021/01/09 00:11:13;;;;;;;8.45;7.53;;;6.80;67.40;;;;;;2105943;28;20024;-59
2021/01/09 00:12:13;;;;;;;9.30;8.15;;;6.80;67.40;;;;;;2104744;28;20348;-59
2021/01/09 00:13:14;;;;;;;8.18;7.38;;;6.80;67.40;;;;;;2104988;28;20023;-59
2021/01/09 00:14:15;;;;;;;7.72;6.93;;;6.80;67.40;;;;;;2103737;28;20020;-59
2021/01/09 00:15:16;;;;;;;8.48;7.40;;;6.80;67.50;;;;;;2100767;28;20067;-59
2021/01/09 00:16:17;;;;;;;8.02;7.13;;;6.80;67.50;;;;;;2100371;28;20052;-59
2021/01/09 00:17:17;;;;;;;8.52;7.63;;;6.80;67.50;;;;;;2104195;28;20047;-59
2021/01/09 00:18:18;;;;;;;8.43;7.38;;;6.90;67.60;;;;;;2101956;28;20048;-58
2021/01/09 00:19:18;;;;;;;8.10;7.30;;;6.90;67.60;;;;;;2103627;28;20024;-58
2021/01/09 00:20:21;;;;;;;10.20;7.80;;;6.80;67.50;;;;;;2105197;28;20043;-60
2021/01/09 00:21:21;;;;;;;8.43;7.55;;;6.90;67.60;;;;;;2104909;28;20051;-60
2021/01/09 00:22:22;;;;;;;9.85;7.43;;;6.90;67.60;;;;;;2105284;28;20028;-58
2021/01/09 00:23:22;;;;;;;8.38;7.32;;;6.80;67.50;;;;;;2100338;28;20086;-61
2021/01/09 00:24:23;;;;;;;9.40;7.82;;;6.90;67.60;;;;;;2099929;28;20029;-60
2021/01/09 00:25:24;;;;;;;14.50;7.78;;;6.90;67.60;;;;;;2104881;28;20084;-59
2021/01/09 00:26:28;;;;;;;7.72;6.90;;;6.90;67.60;;;;;;2106039;28;20486;-58
2021/01/09 00:27:29;;;;;;;9.40;7.65;;;6.90;67.60;;;;;;2104843;28;20032;-58
2021/01/09 00:28:29;;;;;;;7.60;6.82;;;6.90;67.60;;;;;;2104465;28;20103;-58
2021/01/09 00:29:30;;;;;;;9.35;7.88;;;6.90;67.70;;;;;;2103508;28;20655;-59
2021/01/09 00:30:30;;;;;;;7.97;7.18;;;6.90;67.70;;;;;;2105143;28;20407;-58
2021/01/09 00:31:31;;;;;;;7.93;7.13;;;6.90;67.70;;;;;;2098985;28;20065;-58
2021/01/09 00:32:32;;;;;;;9.07;7.43;;;6.90;67.70;;;;;;2104869;28;20009;-60
2021/01/09 00:33:33;;;;;;;9.32;7.90;;;6.90;67.70;;;;;;2105053;28;20016;-58
2021/01/09 00:34:34;;;;;;;8.63;7.22;;;6.90;67.60;;;;;;2104570;28;20028;-58
2021/01/09 00:35:34;;;;;;;7.82;7.05;;;6.90;67.50;;;;;;2105423;28;20032;-58
2021/01/09 00:36:35;;;;;;;7.80;7.03;;;6.90;67.50;;;;;;2101605;28;20077;-59
2021/01/09 00:37:36;;;;;;;8.13;7.28;;;6.90;67.40;;;;;;2104277;28;20398;-59
2021/01/09 00:38:36;;;;;;;8.52;7.00;;;6.90;67.40;;;;;;2104813;28;20089;-59
2021/01/09 00:39:37;;;;;;;8.63;7.10;;;6.90;67.50;;;;;;2102178;28;20108;-58
2021/01/09 00:40:37;;;;;;;8.68;7.43;;;6.90;67.40;;;;;;2106532;28;20016;-58
2021/01/09 00:41:38;;;;;;;9.18;6.97;;;6.90;67.40;;;;;;2103225;28;20438;-58
2021/01/09 00:42:40;;;;;;;8.18;7.18;;;6.90;67.40;;;;;;2104065;28;20025;-59
2021/01/09 00:43:40;;;;;;;8.55;7.63;;;6.90;67.40;;;;;;2104797;28;20031;-58
2021/01/09 00:44:41;;;;;;;9.05;7.45;;;6.90;67.40;;;;;;2101138;28;20044;-59
2021/01/09 00:45:42;;;;;;;8.48;7.57;;;6.90;67.40;;;;;;2104753;28;20031;-59
2021/01/09 00:46:42;;;;;;;8.07;7.28;;;6.90;67.40;;;;;;2104972;28;20020;-58
2021/01/09 00:47:43;;;;;;;8.85;7.38;;;6.90;67.40;;;;;;2103412;28;20082;-59
2021/01/09 00:48:43;;;;;;;8.15;7.35;;;6.90;67.30;;;;;;2104873;28;20052;-58
2021/01/09 00:49:44;;;;;;;9.10;7.90;;;6.90;67.40;;;;;;2102687;28;20024;-58
2021/01/09 00:50:46;;;;;;;8.73;7.45;;;6.90;67.40;;;;;;2105168;28;20169;-59
2021/01/09 00:51:47;;;;;;;8.48;7.68;;;6.90;67.40;;;;;;2104037;28;20447;-58
2021/01/09 00:52:47;;;;;;;9.93;8.02;;;6.90;67.40;;;;;;2101626;28;20116;-58
2021/01/09 00:53:48;;;;;;;7.93;7.13;;;6.90;67.40;;;;;;2104069;28;20032;-59
2021/01/09 00:54:48;;;;;;;8.15;7.15;;;6.90;67.40;;;;;;2104474;28;20021;-58
2021/01/09 00:55:49;;;;;;;8.10;7.20;;;6.90;67.40;;;;;;2105400;28;20131;-58
2021/01/09 00:56:53;;;;;;;8.30;7.07;;;6.90;67.50;;;;;;2104556;28;20106;-59
2021/01/09 00:57:53;;;;;;;8.60;7.25;;;6.90;67.40;;;;;;2100947;28;20029;-59
2021/01/09 00:58:54;;;;;;;8.65;7.55;;;6.90;67.40;;;;;;2104517;28;20036;-59
2021/01/09 00:59:54;;;;;;;9.32;7.20;;;6.90;67.40;;;;;;2104661;28;20035;-59
2021/01/09 01:00:55;;;;;;;8.18;7.38;;;6.90;67.40;;;;;;2100987;28;20025;-59
2021/01/09 01:02:00;;;;;;;10.38;8.50;;;7.00;67.40;;;;;;2104631;28;20058;-58
2021/01/09 01:03:01;;;;;;;9.02;7.50;;;6.90;67.30;;;;;;2100869;28;20039;-59
2021/01/09 01:04:02;;;;;;;9.23;7.03;;;6.90;67.20;;;;;;2104852;28;20028;-59
2021/01/09 01:05:03;;;;;;;8.90;7.80;;;6.90;67.30;;;;;;2102839;28;20149;-59
2021/01/09 01:06:04;;;;;;;7.65;6.85;;;6.90;67.30;;;;;;2102654;28;20115;-59
2021/01/09 01:07:05;;;;;;;8.50;7.47;;;6.90;67.30;;;;;;2102087;28;20032;-59
2021/01/09 01:08:05;;;;;;;8.05;7.25;;;6.90;67.30;;;;;;2101719;28;20020;-59
2021/01/09 01:09:06;;;;;;;8.85;7.95;;;6.90;67.30;;;;;;2102604;28;20469;-58
2021/01/09 01:10:07;;;;;;;9.07;7.38;;;6.90;67.30;;;;;;2101284;28;20124;-59
2021/01/09 01:11:09;;;;;;;10.38;7.90;;;6.90;67.30;;;;;;2101798;28;20029;-59
2021/01/09 01:12:09;;;;;;;8.77;7.88;;;6.90;67.30;;;;;;2101956;28;20032;-58
2021/01/09 01:13:10;;;;;;;9.02;7.82;;;6.90;67.30;;;;;;2104077;28;20044;-59
2021/01/09 01:14:11;;;;;;;8.45;7.57;;;6.90;67.30;;;;;;2100546;28;20099;-59
2021/01/09 01:15:12;;;;;;;9.50;7.95;;;6.90;68.00;;;;;;2102733;28;20024;-59
2021/01/09 01:16:14;;;;;;;8.02;7.22;;;6.90;67.20;;;;;;2104853;28;20533;-59
2021/01/09 01:17:14;;;;;;;8.85;7.10;;;6.90;67.30;;;;;;2102998;28;20085;-59
2021/01/09 01:18:15;;;;;;;8.40;7.07;;;6.90;67.20;;;;;;2099301;28;21268;-59
2021/01/09 01:19:15;;;;;;;9.35;7.70;;;6.90;67.30;;;;;;2102140;28;20077;-58
2021/01/09 01:20:16;;;;;;;10.25;7.47;;;6.90;67.30;;;;;;2101828;28;20028;-59
2021/01/09 01:21:17;;;;;;;8.45;7.43;;;6.90;67.30;;;;;;2103492;28;20031;-59
2021/01/09 01:22:17;;;;;;;9.55;7.75;;;6.90;67.30;;;;;;2103336;28;20047;-59
2021/01/09 01:23:18;;;;;;;7.80;6.95;;;6.90;67.30;;;;;;2100719;28;20097;-59
2021/01/09 01:24:19;;;;;;;8.90;7.68;;;6.90;67.20;;;;;;2098996;28;20112;-59
2021/01/09 01:25:20;;;;;;;9.73;8.10;;;6.90;67.20;;;;;;2103229;28;20443;-59
2021/01/09 01:26:20;;;;;;;8.82;7.55;;;6.80;67.10;;;;;;2097004;28;20029;-59
2021/01/09 01:27:21;;;;;;;9.63;7.95;;;6.90;67.20;;;;;;2103178;28;20020;-59
2021/01/09 01:28:21;;;;;;;8.40;7.43;;;6.80;67.20;;;;;;2103831;28;20107;-58
2021/01/09 01:29:22;;;;;;;10.10;7.50;;;6.90;67.40;;;;;;2103295;28;20043;-59
2021/01/09 01:30:23;;;;;;;9.10;7.30;;;6.80;67.30;;;;;;2103722;28;20035;-58
2021/01/09 01:31:23;;;;;;;8.77;7.40;;;6.80;67.20;;;;;;2099149;28;20058;-59
2021/01/09 01:32:24;;;;;;;8.57;7.68;;;6.90;67.40;;;;;;2104074;28;20020;-59
2021/01/09 01:33:24;;;;;;;8.55;7.43;;;6.90;67.30;;;;;;2097517;28;20020;-58
2021/01/09 01:34:25;;;;;;;8.70;7.68;;;6.90;67.30;;;;;;2098113;28;20029;-59
2021/01/09 01:35:26;;;;;;;8.57;7.38;;;6.90;67.30;;;;;;2099406;28;20090;-59
2021/01/09 01:36:26;;;;;;;9.32;7.75;;;6.90;67.40;;;;;;2093274;28;20021;-59
2021/01/09 01:37:27;;;;;;;8.75;7.45;;;6.90;67.40;;;;;;2103579;28;20103;-59
2021/01/09 01:38:27;;;;;;;9.85;7.80;;;6.90;67.40;;;;;;2097524;28;20056;-58
2021/01/09 01:39:28;;;;;;;9.15;7.78;;;6.90;67.50;;;;;;2097341;28;20028;-59
2021/01/09 01:40:29;;;;;;;11.50;7.88;;;6.90;67.40;;;;;;2104480;28;20137;-58
2021/01/09 01:41:29;;;;;;;8.95;7.55;;;6.90;67.40;;;;;;2103725;28;20051;-58
2021/01/09 01:42:30;;;;;;;10.55;8.57;;;6.90;67.40;;;;;;2103252;28;20119;-59
2021/01/09 01:43:30;;;;;;;8.35;7.30;;;6.90;67.40;;;;;;2104778;28;20035;-59
2021/01/09 01:44:31;;;;;;;8.45;7.32;;;6.90;67.40;;;;;;2099981;28;20020;-59
2021/01/09 01:45:32;;;;;;;9.57;7.47;;;6.90;67.40;;;;;;2104251;28;20085;-59
2021/01/09 01:46:32;;;;;;;9.05;7.65;;;6.80;67.30;;;;;;2097505;28;20032;-59
2021/01/09 01:47:33;;;;;;;8.85;7.95;;;6.80;67.20;;;;;;2102137;28;20021;-58
2021/01/09 01:48:35;;;;;;;8.63;7.00;;;6.80;67.20;;;;;;2102522;28;20031;-58
2021/01/09 01:49:36;;;;;;;8.18;7.30;;;6.90;67.40;;;;;;2096962;28;20033;-59
2021/01/09 01:50:40;;;;;;;11.32;7.57;;;6.90;67.40;;;;;;2104147;28;20110;-59
2021/01/09 01:51:44;;;;;;;9.27;8.02;;;6.90;67.40;;;;;;2097976;28;20098;-59
2021/01/09 01:52:45;;;;;;;8.85;7.22;;;6.90;67.40;;;;;;2092768;28;20040;-59
2021/01/09 01:53:45;;;;;;;8.82;7.55;;;6.90;67.40;;;;;;2104585;28;20115;-59
2021/01/09 01:54:47;;;;;;;9.63;7.80;;;6.90;67.40;;;;;;2098501;28;20060;-59
2021/01/09 01:55:49;;;;;;;8.93;7.63;;;6.90;67.40;;;;;;2101889;28;20465;-58
2021/01/09 01:56:53;;;;;;;9.60;8.23;;;6.90;67.40;;;;;;2099018;28;20040;-59
2021/01/09 01:57:53;;;;;;;11.07;7.95;;;6.90;67.50;;;;;;2099847;28;20132;-59
2021/01/09 01:58:54;;;;;;;8.30;7.22;;;6.90;67.40;;;;;;2101941;28;20025;-58
2021/01/09 01:59:54;;;;;;;9.23;7.32;;;6.90;67.50;;;;;;2102465;28;20223;-58
2021/01/09 02:00:55;;;;;;;7.75;6.95;;;6.90;67.50;;;;;;2094708;28;20028;-58
2021/01/09 02:01:56;;;;;;;9.95;7.60;;;6.90;67.40;;;;;;2099932;28;20032;-59
2021/01/09 02:03:00;;;;;;;7.78;6.80;;;6.90;67.50;;;;;;2104301;28;20044;-59
2021/01/09 02:04:01;;;;;;;8.75;7.10;;;6.90;67.40;;;;;;2097112;28;20052;-58
2021/01/09 02:05:03;;;;;;;11.52;7.55;;;6.80;67.40;;;;;;2099580;28;20051;-59
2021/01/09 02:06:17;;;;;;;10.77;7.53;;;6.90;67.50;;;;;;2098131;28;20350;-59
2021/01/09 02:07:22;;;;;;;9.88;7.47;;;6.80;67.40;;;;;;2100995;28;20035;-59
2021/01/09 02:08:29;;;;;;;9.65;8.13;;;6.90;67.50;;;;;;2101717;28;20513;-59
2021/01/09 02:09:35;;;;;;;11.10;8.52;;;6.90;67.50;;;;;;2103760;28;20063;-59
2021/01/09 02:10:36;;;;;;;8.77;7.55;;;6.80;67.40;;;;;;2098364;28;20050;-59
2021/01/09 02:11:55;;;;;;;10.05;7.60;;;6.90;67.40;;;;;;2100046;28;20024;-58
2021/01/09 02:13:07;;;;;;;8.82;6.72;;;6.90;67.50;;;;;;2095895;28;20036;-59
2021/01/09 02:14:48;;;;;;;10.25;7.65;;;6.80;67.40;;;;;;2098917;28;20460;-58
2021/01/09 02:15:50;;;;;;;7.95;6.93;;;6.90;67.40;;;;;;2091756;28;20033;-59
2021/01/09 02:16:51;;;;;;;10.68;7.50;;;6.90;67.30;;;;;;2098436;28;20033;-58
2021/01/09 02:17:52;;;;;;;10.90;8.00;;;6.90;67.30;;;;;;2104398;28;20461;-58
2021/01/09 02:18:54;;;;;;;9.13;7.22;;;6.90;67.20;;;;;;2098366;28;20123;-58
2021/01/09 02:19:58;;;;;;;10.25;8.05;;;6.80;67.20;;;;;;2098283;28;20044;-59
2021/01/09 02:21:05;;;;;;;8.88;7.22;;;6.80;67.30;;;;;;2102013;28;20047;-59
2021/01/09 02:22:09;;;;;;;10.00;8.02;;;6.80;67.30;;;;;;2101194;28;20028;-59
2021/01/09 02:23:09;;;;;;;9.43;7.68;;;6.80;67.40;;;;;;2099280;28;20086;-58
2021/01/09 02:24:12;;;;;;;8.80;7.20;;;6.80;67.40;;;;;;2101918;28;20028;-58
2021/01/09 02:25:13;;;;;;;9.23;7.63;;;6.80;67.40;;;;;;2103900;28;20028;-59
2021/01/09 02:26:14;;;;;;;10.95;7.85;;;6.80;67.50;;;;;;2101489;28;20027;-59
2021/01/09 02:27:15;;;;;;;10.70;8.43;;;6.80;67.50;;;;;;2100753;28;20459;-59
2021/01/09 02:28:15;;;;;;;9.98;7.55;;;6.80;67.50;;;;;;2103978;28;20016;-59
2021/01/09 02:29:16;;;;;;;9.18;7.63;;;6.80;67.50;;;;;;2104750;28;20039;-59
2021/01/09 02:30:25;;;;;;;9.40;7.40;;;6.80;67.50;;;;;;2101345;28;20060;-59
2021/01/09 02:31:25;;;;;;;10.25;7.47;;;6.80;67.50;;;;;;2093405;28;20020;-58
2021/01/09 02:32:36;;;;;;;11.30;8.05;;;6.80;67.50;;;;;;2098615;28;20028;-58
2021/01/09 02:33:37;;;;;;;8.30;7.40;;;6.80;67.40;;;;;;2097931;28;20055;-59
2021/01/09 02:34:44;;;;;;;11.65;7.70;;;6.80;67.40;;;;;;2101170;28;20033;-58
2021/01/09 02:35:46;;;;;;;8.63;7.47;;;6.80;67.30;;;;;;2092618;28;20039;-58
2021/01/09 02:36:47;;;;;;;8.68;7.40;;;6.80;67.20;;;;;;2092717;28;20025;-59
2021/01/09 02:37:49;;;;;;;9.38;7.47;;;6.80;67.20;;;;;;2098637;28;20020;-59
2021/01/09 02:38:50;;;;;;;10.23;8.05;;;6.80;67.20;;;;;;2103505;28;20028;-59
2021/01/09 02:39:51;;;;;;;8.98;7.68;;;6.80;67.20;;;;;;2098890;28;20020;-58
2021/01/09 02:40:52;;;;;;;9.45;8.38;;;6.80;67.20;;;;;;2097949;28;20623;-58
2021/01/09 02:41:54;;;;;;;8.63;7.50;;;6.80;67.20;;;;;;2099537;28;20087;-58
2021/01/09 02:42:54;;;;;;;10.90;8.18;;;6.80;67.20;;;;;;2102313;28;20029;-59
2021/01/09 02:44:05;;;;;;;9.25;7.90;;;6.80;67.20;;;;;;2103262;28;20025;-58
2021/01/09 02:45:07;;;;;;;8.63;7.55;;;6.80;67.20;;;;;;2098873;28;20099;-59
2021/01/09 02:46:07;;;;;;;8.98;7.57;;;6.80;67.30;;;;;;2100163;28;20028;-59
2021/01/09 02:47:08;;;;;;;8.57;7.68;;;6.80;67.30;;;;;;2101337;28;20501;-58
2021/01/09 02:48:09;;;;;;;9.27;7.68;;;6.80;67.40;;;;;;2101295;28;20020;-59
2021/01/09 02:49:09;;;;;;;9.52;7.50;;;6.80;67.40;;;;;;2098983;28;20035;-58
2021/01/09 02:50:10;;;;;;;10.02;8.02;;;6.80;67.40;;;;;;2101570;28;20055;-59
2021/01/09 02:51:11;;;;;;;11.38;7.32;;;6.80;67.50;;;;;;2099139;28;20037;-59
2021/01/09 02:52:11;;;;;;;8.13;7.22;;;6.80;67.50;;;;;;2100071;28;20077;-58
2021/01/09 02:53:12;;;;;;;9.32;8.07;;;6.80;67.60;;;;;;2102222;28;20027;-59
2021/01/09 02:54:13;;;;;;;10.07;7.93;;;6.80;67.60;;;;;;2102956;28;20024;-58
2021/01/09 02:55:13;;;;;;;8.07;7.25;;;6.80;67.60;;;;;;2104117;28;20024;-58
2021/01/09 02:56:14;;;;;;;10.40;7.45;;;6.80;67.70;;;;;;2098323;28;20062;-59
2021/01/09 02:57:14;;;;;;;9.77;7.88;;;6.80;67.70;;;;;;2096478;28;20029;-59
2021/01/09 02:58:15;;;;;;;9.10;7.80;;;6.80;67.70;;;;;;2096670;28;20028;-59
2021/01/09 02:59:15;;;;;;;9.63;7.47;;;6.80;67.70;;;;;;2100559;28;20048;-59
2021/01/09 03:00:17;;;;;;;10.75;7.50;;;6.80;67.70;;;;;;2101667;28;20170;-58
2021/01/09 03:01:18;;;;;;;11.23;8.57;;;6.80;67.80;;;;;;2103059;28;20056;-59
2021/01/09 03:02:18;;;;;;;9.52;7.63;;;6.80;67.70;;;;;;2096291;28;20028;-59
2021/01/09 03:03:19;;;;;;;9.93;7.35;;;6.80;67.80;;;;;;2103048;28;20047;-59
2021/01/09 03:04:19;;;;;;;10.57;7.80;;;6.80;67.70;;;;;;2101062;28;20016;-59
2021/01/09 03:05:20;;;;;;;9.10;7.63;;;6.80;67.70;;;;;;2100303;28;20016;-59
2021/01/09 03:06:21;;;;;;;9.25;7.70;;;6.80;67.70;;;;;;2098227;28;20138;-59
2021/01/09 03:07:21;;;;;;;8.95;7.35;;;6.80;67.70;;;;;;2102444;28;20526;-59
2021/01/09 03:08:22;;;;;;;7.55;6.75;;;6.80;67.70;;;;;;2102222;28;20034;-59
2021/01/09 03:09:22;;;;;;;10.48;7.55;;;6.80;67.60;;;;;;2102957;28;20358;-58
2021/01/09 03:10:23;;;;;;;11.15;7.82;;;6.80;67.60;;;;;;2099432;28;20020;-58
2021/01/09 03:11:23;;;;;;;9.57;7.68;;;6.80;67.60;;;;;;2100119;28;20032;-59
2021/01/09 03:12:24;;;;;;;8.88;7.53;;;6.90;67.60;;;;;;2097007;28;20032;-59
2021/01/09 03:13:24;;;;;;;9.88;7.38;;;6.90;67.60;;;;;;2098900;28;20368;-59
2021/01/09 03:14:25;;;;;;;9.75;7.70;;;6.90;67.60;;;;;;2103919;28;20020;-58
2021/01/09 03:15:25;;;;;;;9.45;7.45;;;6.90;67.50;;;;;;2104041;28;20050;-58
2021/01/09 03:16:26;;;;;;;9.35;7.57;;;6.80;67.40;;;;;;2098078;28;20089;-59
2021/01/09 03:17:27;;;;;;;10.02;7.45;;;6.80;67.40;;;;;;2105908;28;20078;-59
2021/01/09 03:18:27;;;;;;;8.82;7.00;;;6.90;67.40;;;;;;2096203;28;20025;-59
2021/01/09 03:19:28;;;;;;;8.30;7.05;;;6.90;67.40;;;;;;2103184;28;20027;-59
2021/01/09 03:20:28;;;;;;;8.75;7.85;;;6.90;67.40;;;;;;2104334;28;20357;-59
2021/01/09 03:21:29;;;;;;;9.45;7.28;;;6.90;67.30;;;;;;2101231;28;20032;-59
2021/01/09 03:22:29;;;;;;;10.27;7.63;;;6.80;67.20;;;;;;2105774;28;20043;-58
2021/01/09 03:23:30;;;;;;;8.50;7.57;;;6.90;67.40;;;;;;2100465;28;20052;-59
2021/01/09 03:24:30;;;;;;;9.38;7.88;;;6.90;67.20;;;;;;2100384;28;20127;-58
2021/01/09 03:25:31;;;;;;;8.98;7.85;;;6.80;67.10;;;;;;2106324;28;20024;-59
2021/01/09 03:26:31;;;;;;;8.25;7.00;;;6.80;67.00;;;;;;2099724;28;20346;-59
2021/01/09 03:27:32;;;;;;;8.82;7.22;;;6.80;66.90;;;;;;2105912;28;20408;-58
2021/01/09 03:28:32;;;;;;;8.48;7.07;;;6.80;66.90;;;;;;2105638;28;20052;-59
2021/01/09 03:29:33;;;;;;;8.77;7.47;;;6.80;66.90;;;;;;2100498;28;20598;-59
2021/01/09 03:30:34;;;;;;;10.10;8.07;;;6.80;66.80;;;;;;2105062;28;20486;-58
2021/01/09 03:31:34;;;;;;;9.07;7.47;;;6.80;66.80;;;;;;2098766;28;20596;-58
2021/01/09 03:32:35;;;;;;;8.07;6.78;;;6.80;66.80;;;;;;2099664;28;20027;-58
2021/01/09 03:33:35;;;;;;;12.50;8.32;;;6.80;67.60;;;;;;2104728;28;20119;-59
2021/01/09 03:34:36;;;;;;;9.45;8.05;;;6.80;66.90;;;;;;2102780;28;20048;-59
2021/01/09 03:35:37;;;;;;;9.55;7.43;;;6.80;67.00;;;;;;2105525;28;20030;-58
2021/01/09 03:36:37;;;;;;;9.35;7.50;;;6.70;66.90;;;;;;2095794;28;20083;-59
2021/01/09 03:37:38;;;;;;;9.73;7.65;;;6.70;66.90;;;;;;2104635;28;20024;-59
2021/01/09 03:38:38;;;;;;;8.93;7.82;;;6.70;67.00;;;;;;2105459;28;20104;-59
2021/01/09 03:39:39;;;;;;;9.48;7.07;;;6.70;67.00;;;;;;2099662;28;20025;-58
2021/01/09 03:40:39;;;;;;;9.73;7.65;;;6.70;67.00;;;;;;2105657;28;20024;-59
2021/01/09 03:41:40;;;;;;;9.52;7.60;;;6.70;67.10;;;;;;2099758;28;20025;-59
2021/01/09 03:42:40;;;;;;;11.80;7.90;;;6.70;67.20;;;;;;2099434;28;20020;-59
2021/01/09 03:43:41;;;;;;;8.50;7.57;;;6.70;67.20;;;;;;2099561;28;20032;-59
2021/01/09 03:44:41;;;;;;;9.98;7.65;;;6.70;67.90;;;;;;2097043;28;20414;-58
2021/01/09 03:45:42;;;;;;;10.95;7.80;;;6.70;67.30;;;;;;2105412;28;20330;-58
2021/01/09 03:46:43;;;;;;;9.68;7.82;;;6.70;67.30;;;;;;2099548;28;20024;-59
2021/01/09 03:47:43;;;;;;;9.38;7.18;;;6.70;67.30;;;;;;2100586;28;20020;-59
2021/01/09 03:48:44;;;;;;;9.40;7.85;;;6.70;67.30;;;;;;2103064;28;20024;-59
2021/01/09 03:49:44;;;;;;;8.23;7.05;;;6.60;67.20;;;;;;2095961;28;20052;-58
2021/01/09 03:50:45;;;;;;;9.93;7.60;;;6.70;67.30;;;;;;2104692;28;20048;-59
2021/01/09 03:51:46;;;;;;;8.80;7.07;;;6.70;67.20;;;;;;2100284;28;20115;-59
2021/01/09 03:52:46;;;;;;;8.50;7.55;;;6.70;67.30;;;;;;2099194;28;20032;-59
2021/01/09 03:53:47;;;;;;;8.30;7.40;;;6.70;67.20;;;;;;2104948;28;20039;-59
2021/01/09 03:54:47;;;;;;;8.77;6.82;;;6.70;67.30;;;;;;2104798;28;20060;-59
2021/01/09 03:55:48;;;;;;;8.25;7.05;;;6.70;67.20;;;;;;2103177;28;20350;-58
2021/01/09 03:56:49;;;;;;;9.35;7.80;;;6.60;67.10;;;;;;2099645;28;20024;-59
2021/01/09 03:57:49;;;;;;;9.05;7.22;;;6.60;67.10;;;;;;2095358;28;20529;-57
2021/01/09 03:58:50;;;;;;;8.70;6.63;;;6.60;67.10;;;;;;2102783;28;20029;-58
2021/01/09 03:59:50;;;;;;;9.40;7.88;;;6.60;67.10;;;;;;2105128;28;20025;-59
2021/01/09 04:00:51;;;;;;;8.55;7.57;;;6.60;67.10;;;;;;2101544;28;20020;-59
2021/01/09 04:01:51;;;;;;;11.48;8.20;;;6.60;67.10;;;;;;2098417;28;20035;-59
2021/01/09 04:02:52;;;;;;;9.00;7.35;;;6.60;67.20;;;;;;2095736;28;20025;-58
2021/01/09 04:03:52;;;;;;;9.45;7.55;;;6.60;67.20;;;;;;2104601;28;20060;-58
2021/01/09 04:04:53;;;;;;;10.02;8.15;;;6.60;67.20;;;;;;2101097;28;20116;-58
2021/01/09 04:05:53;;;;;;;9.07;7.63;;;6.60;67.20;;;;;;2100336;28;20090;-58
2021/01/09 04:06:54;;;;;;;9.40;7.40;;;6.60;67.30;;;;;;2105304;28;20082;-59
2021/01/09 04:07:54;;;;;;;8.73;7.82;;;6.50;67.30;;;;;;2105190;28;20095;-59
2021/01/09 04:08:55;;;;;;;9.60;7.32;;;6.50;67.30;;;;;;2099504;28;20343;-59
2021/01/09 04:09:55;;;;;;;10.93;8.73;;;6.50;67.40;;;;;;2104541;28;20817;-59
2021/01/09 04:10:56;;;;;;;9.20;7.72;;;6.50;67.40;;;;;;2100458;28;20649;-59
2021/01/09 04:11:56;;;;;;;8.98;7.65;;;6.50;67.40;;;;;;2103517;28;20025;-59
2021/01/09 04:12:57;;;;;;;11.25;7.55;;;6.50;67.40;;;;;;2105185;28;20021;-58
2021/01/09 04:13:58;;;;;;;10.82;8.07;;;6.50;67.50;;;;;;2102533;28;20473;-59
2021/01/09 04:14:59;;;;;;;9.80;8.05;;;6.50;67.40;;;;;;2105194;28;20681;-59
2021/01/09 04:16:02;;;;;;;10.32;8.05;;;6.50;67.50;;;;;;2103042;28;20511;-59
2021/01/09 04:17:03;;;;;;;11.25;8.15;;;6.50;67.50;;;;;;2100850;28;20324;-58
2021/01/09 04:18:03;;;;;;;9.05;7.43;;;6.50;67.40;;;;;;2103185;28;20063;-59
2021/01/09 04:19:04;;;;;;;11.70;8.10;;;6.50;67.40;;;;;;2100239;28;20040;-59
2021/01/09 04:20:05;;;;;;;8.30;7.13;;;6.50;67.40;;;;;;2101281;28;20051;-59
2021/01/09 04:21:06;;;;;;;11.15;7.90;;;6.50;67.40;;;;;;2102771;28;20024;-59
2021/01/09 04:22:07;;;;;;;8.63;7.63;;;6.50;67.40;;;;;;2102838;28;20101;-59
2021/01/09 04:23:07;;;;;;;9.38;7.53;;;6.50;67.30;;;;;;2103070;28;20107;-59
2021/01/09 04:24:08;;;;;;;10.50;7.93;;;6.50;67.30;;;;;;2099790;28;20024;-59
2021/01/09 04:25:09;;;;;;;10.15;8.55;;;6.50;67.20;;;;;;2102363;28;20043;-58
2021/01/09 04:26:16;;;;;;;8.80;7.57;;;6.50;67.20;;;;;;2100570;28;20044;-58
2021/01/09 04:27:16;;;;;;;10.65;8.07;;;6.50;67.20;;;;;;2101886;28;20032;-59
2021/01/09 04:28:17;;;;;;;9.15;8.07;;;6.50;67.90;;;;;;2103943;28;20028;-59
2021/01/09 04:29:17;;;;;;;12.52;7.93;;;6.50;67.20;;;;;;2104983;28;20034;-59
2021/01/09 04:30:18;;;;;;;10.93;7.85;;;6.50;67.20;;;;;;2103814;28;20018;-58
2021/01/09 04:31:19;;;;;;;10.68;8.23;;;6.40;67.10;;;;;;2098092;28;20391;-59
2021/01/09 04:32:20;;;;;;;8.32;7.38;;;6.40;67.00;;;;;;2098073;28;20028;-58
2021/01/09 04:33:20;;;;;;;8.88;7.57;;;6.40;67.00;;;;;;2102568;28;20024;-59
2021/01/09 04:34:22;;;;;;;11.18;8.35;;;6.40;67.00;;;;;;2103621;28;20012;-59
2021/01/09 04:35:23;;;;;;;12.10;8.52;;;6.40;67.00;;;;;;2104880;28;20009;-59
2021/01/09 04:36:24;;;;;;;10.13;7.95;;;6.40;67.00;;;;;;2094906;28;20129;-58
2021/01/09 04:37:25;;;;;;;7.95;7.15;;;6.40;67.00;;;;;;2103726;28;20102;-59
2021/01/09 04:38:25;;;;;;;10.35;7.82;;;6.40;67.00;;;;;;2104241;28;20008;-59
2021/01/09 04:39:26;;;;;;;9.63;7.93;;;6.40;67.00;;;;;;2099429;28;20024;-59
2021/01/09 04:40:26;;;;;;;10.13;7.70;;;6.40;67.00;;;;;;2104836;28;20418;-59
2021/01/09 04:41:28;;;;;;;10.10;7.95;;;6.30;67.00;;;;;;2104484;28;20025;-58
2021/01/09 04:42:28;;;;;;;9.43;7.53;;;6.30;67.00;;;;;;2101955;28;20368;-59
2021/01/09 04:43:29;;;;;;;10.57;8.00;;;6.30;67.10;;;;;;2105069;28;20111;-58
2021/01/09 04:44:30;;;;;;;10.90;7.85;;;6.30;67.10;;;;;;2095197;28;20021;-59
2021/01/09 04:45:31;;;;;;;9.15;8.02;;;6.30;67.10;;;;;;2096162;28;20040;-58
2021/01/09 04:46:44;;;;;;;8.85;7.43;;;6.30;67.10;;;;;;2103963;28;20059;-59
2021/01/09 04:47:48;;;;;;;10.20;8.40;;;6.30;67.90;;;;;;2093690;28;20040;-58
2021/01/09 04:48:49;;;;;;;11.10;7.97;;;6.30;67.20;;;;;;2103469;28;20029;-58
2021/01/09 04:49:49;;;;;;;9.43;7.55;;;6.30;67.30;;;;;;2102651;28;20478;-59
2021/01/09 04:50:51;;;;;;;10.48;7.80;;;6.30;67.30;;;;;;2103160;28;20034;-59
2021/01/09 04:51:53;;;;;;;11.68;8.57;;;6.30;67.40;;;;;;2099761;28;20039;-59
2021/01/09 04:52:55;;;;;;;10.68;8.23;;;6.20;67.40;;;;;;2096260;28;20123;-59
2021/01/09 04:53:57;;;;;;;13.65;8.57;;;6.20;67.40;;;;;;2103922;28;20029;-59
2021/01/09 04:54:59;;;;;;;9.85;8.20;;;6.20;67.50;;;;;;2104838;28;20060;-59
2021/01/09 04:56:00;;;;;;;11.88;8.48;;;6.20;67.50;;;;;;2102655;28;20031;-58
2021/01/09 04:57:00;;;;;;;10.60;8.02;;;6.20;67.60;;;;;;2102830;28;20029;-59
2021/01/09 04:58:02;;;;;;;13.43;9.95;;;6.20;67.60;;;;;;2098815;28;20078;-59
2021/01/09 04:59:04;;;;;;;10.38;8.85;;;6.20;67.60;;;;;;2098658;28;20029;-59
2021/01/09 05:00:06;;;;;;;10.00;8.10;;;6.20;67.60;;;;;;2101903;28;20047;-59
2021/01/09 05:01:07;;;;;;;15.07;8.88;;;6.20;67.70;;;;;;2098115;28;20444;-58
2021/01/09 05:02:09;;;;;;;13.70;8.32;;;6.20;67.70;;;;;;2102327;28;20096;-58
2021/01/09 05:03:09;;;;;;;12.40;9.13;;;6.20;67.80;;;;;;2105211;28;20132;-59
2021/01/09 05:04:10;;;;;;;12.40;8.75;;;6.20;67.70;;;;;;2101918;28;20024;-58
2021/01/09 05:05:11;;;;;;;9.77;8.25;;;6.30;67.70;;;;;;2100240;28;20438;-59
2021/01/09 05:06:12;;;;;;;10.93;8.43;;;6.30;67.80;;;;;;2098402;28;20035;-58
2021/01/09 05:07:12;;;;;;;10.98;8.65;;;6.20;67.80;;;;;;2099409;28;20031;-58
2021/01/09 05:08:13;;;;;;;10.57;8.48;;;6.30;67.90;;;;;;2104257;28;20032;-58
2021/01/09 05:09:15;;;;;;;10.95;8.70;;;6.30;67.90;;;;;;2100829;28;20111;-59
2021/01/09 05:10:16;;;;;;;11.93;8.75;;;6.30;67.90;;;;;;2100992;28;20025;-58
2021/01/09 05:11:17;;;;;;;10.90;8.35;;;6.30;67.90;;;;;;2103020;28;20035;-58
2021/01/09 05:12:18;;;;;;;13.05;9.50;;;6.30;67.90;;;;;;2104488;28;20020;-59
2021/01/09 05:13:22;;;;;;;11.40;7.80;;;6.30;68.00;;;;;;2100171;28;20418;-59
2021/01/09 05:14:22;;;;;;;10.73;8.48;;;6.30;68.10;;;;;;2104260;28;20066;-58
2021/01/09 05:15:33;;;;;;;11.40;8.48;;;6.30;68.10;;;;;;2102345;28;20027;-58
2021/01/09 05:16:35;;;;;;;12.57;8.32;;;6.30;68.10;;;;;;2098047;28;20048;-59
2021/01/09 05:17:37;;;;;;;11.18;8.27;;;6.30;68.20;;;;;;2105058;28;20026;-59
2021/01/09 05:18:39;;;;;;;11.25;8.60;;;6.30;68.10;;;;;;2098023;28;20070;-59
2021/01/09 05:19:41;;;;;;;10.65;8.30;;;6.30;68.10;;;;;;2101838;28;20533;-59
2021/01/09 05:20:43;;;;;;;10.00;8.20;;;6.30;68.10;;;;;;2104205;28;20036;-58
2021/01/09 05:21:46;;;;;;;10.10;8.55;;;6.30;68.00;;;;;;2096627;28;20021;-58
2021/01/09 05:22:46;;;;;;;12.40;9.10;;;6.30;67.90;;;;;;2104788;28;20028;-58